sensor_id;sensor_type;location;lat;lon;timestamp;P1;durP1;ratioP1;P2;durP2;ratioP2
12871;SDS011;6504;53.766;9.626;2023-03-22T00:00:50;21.30;;;18.33;;
12871;SDS011;6504;53.766;9.626;2023-03-22T00:03:21;20.20;;;18.20;;
12871;SDS011;6504;53.766;9.626;2023-03-22T00:05:57;20.17;;;18.07;;
12871;SDS011;6504;53.766;9.626;2023-03-22T00:08:27;24.13;;;18.33;;
12871;SDS011;6504;53.766;9.626;2023-03-22T00:10:56;19.90;;;17.67;;
12871;SDS011;6504;53.766;9.626;2023-03-22T00:13:27;21.70;;;18.80;;
12871;SDS011;6504;53.766;9.626;2023-03-22T00:15:59;22.13;;;18.77;;
12871;SDS011;6504;53.766;9.626;2023-03-22T00:18:34;20.43;;;18.33;;
12871;SDS011;6504;53.766;9.626;2023-03-22T00:21:08;20.30;;;18.20;;
12871;SDS011;6504;53.766;9.626;2023-03-22T00:23:45;20.20;;;18.20;;
12871;SDS011;6504;53.766;9.626;2023-03-22T00:26:15;21.50;;;19.20;;
12871;SDS011;6504;53.766;9.626;2023-03-22T00:28:46;20.20;;;18.00;;
12871;SDS011;6504;53.766;9.626;2023-03-22T00:31:16;20.70;;;18.50;;
12871;SDS011;6504;53.766;9.626;2023-03-22T00:33:46;21.53;;;19.23;;
12871;SDS011;6504;53.766;9.626;2023-03-22T00:36:17;19.50;;;17.50;;
12871;SDS011;6504;53.766;9.626;2023-03-22T00:38:48;23.47;;;20.40;;
12871;SDS011;6504;53.766;9.626;2023-03-22T00:41:20;22.80;;;20.17;;
12871;SDS011;6504;53.766;9.626;2023-03-22T00:43:51;24.10;;;20.57;;
12871;SDS011;6504;53.766;9.626;2023-03-22T00:46:24;24.30;;;20.20;;
12871;SDS011;6504;53.766;9.626;2023-03-22T00:48:54;21.83;;;19.63;;
12871;SDS011;6504;53.766;9.626;2023-03-22T00:51:27;24.67;;;20.63;;
12871;SDS011;6504;53.766;9.626;2023-03-22T00:53:56;23.03;;;20.63;;
12871;SDS011;6504;53.766;9.626;2023-03-22T00:56:26;22.20;;;19.87;;
12871;SDS011;6504;53.766;9.626;2023-03-22T00:58:56;22.27;;;19.93;;
12871;SDS011;6504;53.766;9.626;2023-03-22T01:01:26;23.90;;;21.50;;
12871;SDS011;6504;53.766;9.626;2023-03-22T01:03:56;23.43;;;20.47;;
12871;SDS011;6504;53.766;9.626;2023-03-22T01:06:31;23.50;;;21.10;;
12871;SDS011;6504;53.766;9.626;2023-03-22T01:09:01;25.20;;;22.10;;
12871;SDS011;6504;53.766;9.626;2023-03-22T01:11:32;22.63;;;20.07;;
12871;SDS011;6504;53.766;9.626;2023-03-22T01:14:02;24.47;;;21.87;;
12871;SDS011;6504;53.766;9.626;2023-03-22T01:16:39;24.53;;;22.00;;
12871;SDS011;6504;53.766;9.626;2023-03-22T01:19:09;23.97;;;21.33;;
12871;SDS011;6504;53.766;9.626;2023-03-22T01:21:42;24.97;;;22.30;;
12871;SDS011;6504;53.766;9.626;2023-03-22T01:24:12;25.70;;;22.23;;
12871;SDS011;6504;53.766;9.626;2023-03-22T01:26:43;23.77;;;21.20;;
12871;SDS011;6504;53.766;9.626;2023-03-22T01:29:14;26.90;;;22.67;;
12871;SDS011;6504;53.766;9.626;2023-03-22T01:31:47;25.63;;;22.53;;
12871;SDS011;6504;53.766;9.626;2023-03-22T01:34:17;24.67;;;22.13;;
12871;SDS011;6504;53.766;9.626;2023-03-22T01:36:50;26.73;;;23.27;;
12871;SDS011;6504;53.766;9.626;2023-03-22T01:39:22;27.80;;;22.93;;
12871;SDS011;6504;53.766;9.626;2023-03-22T01:41:54;24.87;;;22.27;;
12871;SDS011;6504;53.766;9.626;2023-03-22T01:44:27;26.60;;;23.73;;
12871;SDS011;6504;53.766;9.626;2023-03-22T01:46:58;26.73;;;23.13;;
12871;SDS011;6504;53.766;9.626;2023-03-22T01:49:28;28.63;;;24.47;;
12871;SDS011;6504;53.766;9.626;2023-03-22T01:52:04;28.17;;;25.17;;
12871;SDS011;6504;53.766;9.626;2023-03-22T01:54:37;29.07;;;25.63;;
12871;SDS011;6504;53.766;9.626;2023-03-22T01:57:11;27.63;;;23.97;;
12871;SDS011;6504;53.766;9.626;2023-03-22T01:59:45;29.03;;;25.93;;
12871;SDS011;6504;53.766;9.626;2023-03-22T02:02:19;29.67;;;26.17;;
12871;SDS011;6504;53.766;9.626;2023-03-22T02:04:51;27.60;;;24.63;;
12871;SDS011;6504;53.766;9.626;2023-03-22T02:07:26;29.00;;;25.63;;
12871;SDS011;6504;53.766;9.626;2023-03-22T02:10:02;27.50;;;24.60;;
12871;SDS011;6504;53.766;9.626;2023-03-22T02:12:34;27.03;;;24.13;;
12871;SDS011;6504;53.766;9.626;2023-03-22T02:15:12;26.10;;;23.30;;
12871;SDS011;6504;53.766;9.626;2023-03-22T02:17:51;28.70;;;24.90;;
12871;SDS011;6504;53.766;9.626;2023-03-22T02:29:51;26.47;;;23.10;;
12871;SDS011;6504;53.766;9.626;2023-03-22T02:32:36;26.97;;;24.07;;
12871;SDS011;6504;53.766;9.626;2023-03-22T02:35:43;26.47;;;23.87;;
12871;SDS011;6504;53.766;9.626;2023-03-22T02:41:39;28.40;;;25.33;;
12871;SDS011;6504;53.766;9.626;2023-03-22T02:44:18;26.93;;;24.10;;
12871;SDS011;6504;53.766;9.626;2023-03-22T02:46:55;27.40;;;24.30;;
12871;SDS011;6504;53.766;9.626;2023-03-22T02:49:32;27.00;;;24.10;;
12871;SDS011;6504;53.766;9.626;2023-03-22T02:52:11;26.57;;;23.73;;
12871;SDS011;6504;53.766;9.626;2023-03-22T02:54:47;25.57;;;22.87;;
12871;SDS011;6504;53.766;9.626;2023-03-22T02:57:27;25.03;;;22.53;;
12871;SDS011;6504;53.766;9.626;2023-03-22T03:00:03;25.50;;;22.80;;
12871;SDS011;6504;53.766;9.626;2023-03-22T03:02:42;26.17;;;23.57;;
12871;SDS011;6504;53.766;9.626;2023-03-22T03:05:17;26.73;;;23.93;;
12871;SDS011;6504;53.766;9.626;2023-03-22T03:07:49;25.83;;;23.23;;
12871;SDS011;6504;53.766;9.626;2023-03-22T03:10:27;27.00;;;24.23;;
12871;SDS011;6504;53.766;9.626;2023-03-22T03:12:59;27.63;;;24.60;;
12871;SDS011;6504;53.766;9.626;2023-03-22T03:15:29;25.87;;;23.27;;
12871;SDS011;6504;53.766;9.626;2023-03-22T03:18:04;25.97;;;23.20;;
12871;SDS011;6504;53.766;9.626;2023-03-22T03:20:52;26.60;;;24.00;;
12871;SDS011;6504;53.766;9.626;2023-03-22T03:23:32;25.03;;;22.50;;
12871;SDS011;6504;53.766;9.626;2023-03-22T03:26:11;25.67;;;23.00;;
12871;SDS011;6504;53.766;9.626;2023-03-22T03:28:49;25.33;;;22.53;;
12871;SDS011;6504;53.766;9.626;2023-03-22T03:31:26;24.90;;;22.30;;
12871;SDS011;6504;53.766;9.626;2023-03-22T03:34:05;25.73;;;22.87;;
12871;SDS011;6504;53.766;9.626;2023-03-22T03:36:42;26.77;;;23.77;;
12871;SDS011;6504;53.766;9.626;2023-03-22T03:39:17;26.27;;;23.57;;
12871;SDS011;6504;53.766;9.626;2023-03-22T03:41:49;24.90;;;22.40;;
12871;SDS011;6504;53.766;9.626;2023-03-22T03:44:23;26.60;;;23.87;;
12871;SDS011;6504;53.766;9.626;2023-03-22T03:46:54;25.30;;;22.60;;
12871;SDS011;6504;53.766;9.626;2023-03-22T03:49:25;25.17;;;22.57;;
12871;SDS011;6504;53.766;9.626;2023-03-22T03:51:56;24.50;;;22.03;;
12871;SDS011;6504;53.766;9.626;2023-03-22T03:54:28;25.07;;;22.53;;
12871;SDS011;6504;53.766;9.626;2023-03-22T03:57:00;25.17;;;22.63;;
12871;SDS011;6504;53.766;9.626;2023-03-22T03:59:37;25.23;;;22.53;;
12871;SDS011;6504;53.766;9.626;2023-03-22T04:02:07;25.43;;;22.73;;
12871;SDS011;6504;53.766;9.626;2023-03-22T04:04:38;25.37;;;22.57;;
12871;SDS011;6504;53.766;9.626;2023-03-22T04:07:08;24.57;;;21.90;;
12871;SDS011;6504;53.766;9.626;2023-03-22T04:09:38;25.33;;;22.53;;
12871;SDS011;6504;53.766;9.626;2023-03-22T04:12:16;25.90;;;23.10;;
12871;SDS011;6504;53.766;9.626;2023-03-22T04:14:47;24.67;;;22.13;;
12871;SDS011;6504;53.766;9.626;2023-03-22T04:17:17;24.53;;;21.97;;
12871;SDS011;6504;53.766;9.626;2023-03-22T04:19:47;26.93;;;24.07;;
12871;SDS011;6504;53.766;9.626;2023-03-22T04:22:22;25.07;;;22.33;;
12871;SDS011;6504;53.766;9.626;2023-03-22T04:24:52;28.07;;;22.93;;
12871;SDS011;6504;53.766;9.626;2023-03-22T04:27:24;23.67;;;21.10;;
12871;SDS011;6504;53.766;9.626;2023-03-22T04:29:56;24.20;;;21.60;;
12871;SDS011;6504;53.766;9.626;2023-03-22T04:32:27;23.97;;;21.43;;
12871;SDS011;6504;53.766;9.626;2023-03-22T04:34:56;23.50;;;21.07;;
12871;SDS011;6504;53.766;9.626;2023-03-22T04:37:26;22.20;;;20.00;;
12871;SDS011;6504;53.766;9.626;2023-03-22T04:39:57;25.30;;;21.27;;
12871;SDS011;6504;53.766;9.626;2023-03-22T04:42:35;24.03;;;21.27;;
12871;SDS011;6504;53.766;9.626;2023-03-22T04:45:05;23.33;;;20.47;;
12871;SDS011;6504;53.766;9.626;2023-03-22T04:47:37;23.53;;;19.83;;
12871;SDS011;6504;53.766;9.626;2023-03-22T04:50:07;24.00;;;20.67;;
12871;SDS011;6504;53.766;9.626;2023-03-22T04:52:39;23.23;;;20.30;;
12871;SDS011;6504;53.766;9.626;2023-03-22T04:55:09;23.20;;;19.77;;
12871;SDS011;6504;53.766;9.626;2023-03-22T04:57:40;22.67;;;20.20;;
12871;SDS011;6504;53.766;9.626;2023-03-22T05:00:10;22.97;;;20.57;;
12871;SDS011;6504;53.766;9.626;2023-03-22T05:02:41;22.63;;;19.07;;
12871;SDS011;6504;53.766;9.626;2023-03-22T05:05:16;23.23;;;19.47;;
12871;SDS011;6504;53.766;9.626;2023-03-22T05:07:46;22.47;;;18.93;;
12871;SDS011;6504;53.766;9.626;2023-03-22T05:10:16;20.57;;;18.37;;
12871;SDS011;6504;53.766;9.626;2023-03-22T05:12:50;20.37;;;18.10;;
12871;SDS011;6504;53.766;9.626;2023-03-22T05:15:20;22.57;;;19.33;;
12871;SDS011;6504;53.766;9.626;2023-03-22T05:17:53;21.97;;;19.60;;
12871;SDS011;6504;53.766;9.626;2023-03-22T05:20:23;23.63;;;19.77;;
12871;SDS011;6504;53.766;9.626;2023-03-22T05:22:53;22.87;;;19.70;;
12871;SDS011;6504;53.766;9.626;2023-03-22T05:25:23;21.50;;;19.10;;
12871;SDS011;6504;53.766;9.626;2023-03-22T05:27:55;22.03;;;19.23;;
12871;SDS011;6504;53.766;9.626;2023-03-22T05:30:28;22.67;;;18.40;;
12871;SDS011;6504;53.766;9.626;2023-03-22T05:33:03;19.67;;;17.57;;
12871;SDS011;6504;53.766;9.626;2023-03-22T05:35:34;22.67;;;17.97;;
12871;SDS011;6504;53.766;9.626;2023-03-22T05:38:05;20.00;;;17.13;;
12871;SDS011;6504;53.766;9.626;2023-03-22T05:40:36;18.93;;;17.00;;
12871;SDS011;6504;53.766;9.626;2023-03-22T05:43:08;20.27;;;16.93;;
12871;SDS011;6504;53.766;9.626;2023-03-22T05:45:39;20.63;;;17.53;;
12871;SDS011;6504;53.766;9.626;2023-03-22T05:48:09;21.20;;;17.27;;
12871;SDS011;6504;53.766;9.626;2023-03-22T05:50:39;21.67;;;16.37;;
12871;SDS011;6504;53.766;9.626;2023-03-22T05:53:18;19.93;;;17.33;;
12871;SDS011;6504;53.766;9.626;2023-03-22T05:55:48;18.43;;;16.00;;
12871;SDS011;6504;53.766;9.626;2023-03-22T05:58:20;17.30;;;15.13;;
12871;SDS011;6504;53.766;9.626;2023-03-22T06:00:51;19.50;;;17.17;;
12871;SDS011;6504;53.766;9.626;2023-03-22T06:03:21;18.80;;;16.23;;
12871;SDS011;6504;53.766;9.626;2023-03-22T06:05:53;18.83;;;16.70;;
12871;SDS011;6504;53.766;9.626;2023-03-22T06:08:28;21.93;;;17.47;;
12871;SDS011;6504;53.766;9.626;2023-03-22T06:10:58;18.90;;;16.90;;
12871;SDS011;6504;53.766;9.626;2023-03-22T06:13:31;18.50;;;16.40;;
12871;SDS011;6504;53.766;9.626;2023-03-22T06:16:02;19.37;;;16.63;;
12871;SDS011;6504;53.766;9.626;2023-03-22T06:18:33;19.07;;;17.07;;
12871;SDS011;6504;53.766;9.626;2023-03-22T06:21:03;19.53;;;16.53;;
12871;SDS011;6504;53.766;9.626;2023-03-22T06:23:41;19.00;;;16.57;;
12871;SDS011;6504;53.766;9.626;2023-03-22T06:26:11;18.23;;;16.33;;
12871;SDS011;6504;53.766;9.626;2023-03-22T06:28:45;18.17;;;16.20;;
12871;SDS011;6504;53.766;9.626;2023-03-22T06:31:20;17.73;;;15.93;;
12871;SDS011;6504;53.766;9.626;2023-03-22T06:33:49;19.40;;;16.07;;
12871;SDS011;6504;53.766;9.626;2023-03-22T06:36:21;17.63;;;14.87;;
12871;SDS011;6504;53.766;9.626;2023-03-22T06:38:53;16.77;;;14.97;;
12871;SDS011;6504;53.766;9.626;2023-03-22T06:41:22;16.73;;;14.93;;
12871;SDS011;6504;53.766;9.626;2023-03-22T06:43:52;16.80;;;14.50;;
12871;SDS011;6504;53.766;9.626;2023-03-22T06:46:22;16.47;;;13.73;;
12871;SDS011;6504;53.766;9.626;2023-03-22T06:48:53;17.90;;;13.87;;
12871;SDS011;6504;53.766;9.626;2023-03-22T06:51:24;17.00;;;13.93;;
12871;SDS011;6504;53.766;9.626;2023-03-22T06:53:53;15.40;;;13.80;;
12871;SDS011;6504;53.766;9.626;2023-03-22T06:56:26;16.67;;;14.13;;
12871;SDS011;6504;53.766;9.626;2023-03-22T06:59:02;14.07;;;12.47;;
12871;SDS011;6504;53.766;9.626;2023-03-22T07:01:32;14.73;;;13.17;;
12871;SDS011;6504;53.766;9.626;2023-03-22T07:04:02;16.80;;;12.60;;
12871;SDS011;6504;53.766;9.626;2023-03-22T07:06:35;14.10;;;11.87;;
12871;SDS011;6504;53.766;9.626;2023-03-22T07:09:05;15.53;;;12.33;;
12871;SDS011;6504;53.766;9.626;2023-03-22T07:11:36;13.90;;;11.13;;
12871;SDS011;6504;53.766;9.626;2023-03-22T07:14:07;13.47;;;12.07;;
12871;SDS011;6504;53.766;9.626;2023-03-22T07:16:37;13.13;;;11.73;;
12871;SDS011;6504;53.766;9.626;2023-03-22T07:19:08;15.20;;;11.80;;
12871;SDS011;6504;53.766;9.626;2023-03-22T07:21:40;14.33;;;11.43;;
12871;SDS011;6504;53.766;9.626;2023-03-22T07:24:10;14.20;;;11.07;;
12871;SDS011;6504;53.766;9.626;2023-03-22T07:26:40;12.07;;;10.77;;
12871;SDS011;6504;53.766;9.626;2023-03-22T07:29:11;14.10;;;10.77;;
12871;SDS011;6504;53.766;9.626;2023-03-22T07:31:41;14.37;;;10.93;;
12871;SDS011;6504;53.766;9.626;2023-03-22T07:34:12;12.63;;;11.30;;
12871;SDS011;6504;53.766;9.626;2023-03-22T07:36:42;14.53;;;11.90;;
12871;SDS011;6504;53.766;9.626;2023-03-22T07:39:12;13.00;;;11.60;;
12871;SDS011;6504;53.766;9.626;2023-03-22T07:41:42;14.73;;;11.97;;
12871;SDS011;6504;53.766;9.626;2023-03-22T07:44:14;14.63;;;12.93;;
12871;SDS011;6504;53.766;9.626;2023-03-22T07:46:50;14.43;;;12.10;;
12871;SDS011;6504;53.766;9.626;2023-03-22T07:49:20;15.93;;;14.13;;
12871;SDS011;6504;53.766;9.626;2023-03-22T07:51:49;14.73;;;12.77;;
12871;SDS011;6504;53.766;9.626;2023-03-22T07:54:22;14.37;;;12.87;;
12871;SDS011;6504;53.766;9.626;2023-03-22T07:57:03;16.60;;;14.67;;
12871;SDS011;6504;53.766;9.626;2023-03-22T07:59:34;15.27;;;13.67;;
12871;SDS011;6504;53.766;9.626;2023-03-22T08:02:08;15.93;;;14.33;;
12871;SDS011;6504;53.766;9.626;2023-03-22T08:04:39;15.97;;;14.20;;
12871;SDS011;6504;53.766;9.626;2023-03-22T08:07:08;17.13;;;14.10;;
12871;SDS011;6504;53.766;9.626;2023-03-22T08:09:38;16.37;;;14.60;;
12871;SDS011;6504;53.766;9.626;2023-03-22T08:12:08;15.67;;;14.00;;
12871;SDS011;6504;53.766;9.626;2023-03-22T08:14:40;18.33;;;15.30;;
12871;SDS011;6504;53.766;9.626;2023-03-22T08:17:12;16.57;;;14.87;;
12871;SDS011;6504;53.766;9.626;2023-03-22T08:19:42;17.37;;;15.57;;
12871;SDS011;6504;53.766;9.626;2023-03-22T08:22:13;17.63;;;15.13;;
12871;SDS011;6504;53.766;9.626;2023-03-22T08:24:43;17.40;;;15.60;;
12871;SDS011;6504;53.766;9.626;2023-03-22T08:27:15;18.13;;;16.23;;
12871;SDS011;6504;53.766;9.626;2023-03-22T08:29:48;18.13;;;15.80;;
12871;SDS011;6504;53.766;9.626;2023-03-22T08:32:17;19.40;;;17.40;;
12871;SDS011;6504;53.766;9.626;2023-03-22T08:34:50;19.83;;;16.67;;
12871;SDS011;6504;53.766;9.626;2023-03-22T08:37:20;19.77;;;16.37;;
12871;SDS011;6504;53.766;9.626;2023-03-22T08:39:51;18.47;;;16.57;;
12871;SDS011;6504;53.766;9.626;2023-03-22T08:42:29;17.43;;;15.47;;
12871;SDS011;6504;53.766;9.626;2023-03-22T08:45:01;17.30;;;15.50;;
12871;SDS011;6504;53.766;9.626;2023-03-22T08:47:31;16.70;;;15.07;;
12871;SDS011;6504;53.766;9.626;2023-03-22T08:50:01;16.63;;;14.83;;
12871;SDS011;6504;53.766;9.626;2023-03-22T08:52:32;16.83;;;14.87;;
12871;SDS011;6504;53.766;9.626;2023-03-22T08:55:02;16.40;;;14.63;;
12871;SDS011;6504;53.766;9.626;2023-03-22T08:57:32;15.27;;;13.70;;
12871;SDS011;6504;53.766;9.626;2023-03-22T09:00:06;17.10;;;13.60;;
12871;SDS011;6504;53.766;9.626;2023-03-22T09:02:38;14.67;;;12.67;;
12871;SDS011;6504;53.766;9.626;2023-03-22T09:05:08;15.07;;;12.77;;
12871;SDS011;6504;53.766;9.626;2023-03-22T09:07:40;14.07;;;12.67;;
12871;SDS011;6504;53.766;9.626;2023-03-22T09:10:10;15.53;;;12.77;;
12871;SDS011;6504;53.766;9.626;2023-03-22T09:12:42;13.30;;;11.90;;
12871;SDS011;6504;53.766;9.626;2023-03-22T09:15:17;13.40;;;12.10;;
12871;SDS011;6504;53.766;9.626;2023-03-22T09:17:47;16.03;;;12.03;;
12871;SDS011;6504;53.766;9.626;2023-03-22T09:20:17;12.83;;;11.40;;
12871;SDS011;6504;53.766;9.626;2023-03-22T09:22:51;13.67;;;11.97;;
12871;SDS011;6504;53.766;9.626;2023-03-22T09:25:21;12.57;;;11.27;;
12871;SDS011;6504;53.766;9.626;2023-03-22T09:27:54;13.83;;;10.57;;
12871;SDS011;6504;53.766;9.626;2023-03-22T09:30:26;12.83;;;10.97;;
12871;SDS011;6504;53.766;9.626;2023-03-22T09:33:00;14.37;;;11.37;;
12871;SDS011;6504;53.766;9.626;2023-03-22T09:35:30;14.00;;;10.67;;
12871;SDS011;6504;53.766;9.626;2023-03-22T09:38:01;11.43;;;10.03;;
12871;SDS011;6504;53.766;9.626;2023-03-22T09:40:33;12.07;;;10.03;;
12871;SDS011;6504;53.766;9.626;2023-03-22T09:43:06;12.83;;;9.80;;
12871;SDS011;6504;53.766;9.626;2023-03-22T09:45:42;11.07;;;9.40;;
12871;SDS011;6504;53.766;9.626;2023-03-22T09:48:19;11.57;;;9.13;;
12871;SDS011;6504;53.766;9.626;2023-03-22T09:50:52;11.50;;;9.27;;
12871;SDS011;6504;53.766;9.626;2023-03-22T09:53:23;15.27;;;9.57;;
12871;SDS011;6504;53.766;9.626;2023-03-22T09:56:00;12.00;;;9.23;;
12871;SDS011;6504;53.766;9.626;2023-03-22T09:58:36;11.57;;;9.53;;
12871;SDS011;6504;53.766;9.626;2023-03-22T10:01:14;13.27;;;9.77;;
12871;SDS011;6504;53.766;9.626;2023-03-22T10:03:56;12.40;;;8.77;;
12871;SDS011;6504;53.766;9.626;2023-03-22T10:06:44;13.30;;;8.33;;
12871;SDS011;6504;53.766;9.626;2023-03-22T10:09:30;10.17;;;8.13;;
12871;SDS011;6504;53.766;9.626;2023-03-22T10:12:06;10.40;;;8.60;;
12871;SDS011;6504;53.766;9.626;2023-03-22T10:14:45;10.37;;;8.57;;
12871;SDS011;6504;53.766;9.626;2023-03-22T10:17:22;10.10;;;8.93;;
12871;SDS011;6504;53.766;9.626;2023-03-22T10:19:55;11.17;;;9.03;;
12871;SDS011;6504;53.766;9.626;2023-03-22T10:25:13;13.37;;;9.23;;
12871;SDS011;6504;53.766;9.626;2023-03-22T10:27:47;9.50;;;8.47;;
12871;SDS011;6504;53.766;9.626;2023-03-22T10:30:19;10.77;;;8.43;;
12871;SDS011;6504;53.766;9.626;2023-03-22T10:32:56;11.73;;;8.87;;
12871;SDS011;6504;53.766;9.626;2023-03-22T10:35:29;9.80;;;8.80;;
12871;SDS011;6504;53.766;9.626;2023-03-22T10:38:06;9.40;;;8.00;;
12871;SDS011;6504;53.766;9.626;2023-03-22T10:40:46;10.50;;;8.53;;
12871;SDS011;6504;53.766;9.626;2023-03-22T10:43:19;9.53;;;8.53;;
12871;SDS011;6504;53.766;9.626;2023-03-22T10:45:58;10.43;;;9.43;;
12871;SDS011;6504;53.766;9.626;2023-03-22T10:48:36;11.77;;;8.93;;
12871;SDS011;6504;53.766;9.626;2023-03-22T10:51:10;11.87;;;8.57;;
12871;SDS011;6504;53.766;9.626;2023-03-22T10:53:52;11.87;;;8.10;;
12871;SDS011;6504;53.766;9.626;2023-03-22T10:56:24;10.37;;;8.13;;
12871;SDS011;6504;53.766;9.626;2023-03-22T10:58:54;9.57;;;7.50;;
12871;SDS011;6504;53.766;9.626;2023-03-22T11:01:25;9.20;;;6.87;;
12871;SDS011;6504;53.766;9.626;2023-03-22T11:04:05;8.90;;;7.07;;
12871;SDS011;6504;53.766;9.626;2023-03-22T11:06:37;7.83;;;7.03;;
12871;SDS011;6504;53.766;9.626;2023-03-22T11:09:10;10.30;;;7.83;;
12871;SDS011;6504;53.766;9.626;2023-03-22T11:11:45;10.30;;;7.40;;
12871;SDS011;6504;53.766;9.626;2023-03-22T11:14:19;9.37;;;6.80;;
12871;SDS011;6504;53.766;9.626;2023-03-22T11:16:55;8.60;;;6.33;;
12871;SDS011;6504;53.766;9.626;2023-03-22T11:19:32;8.93;;;6.20;;
12871;SDS011;6504;53.766;9.626;2023-03-22T11:22:03;7.03;;;6.33;;
12871;SDS011;6504;53.766;9.626;2023-03-22T11:24:35;8.23;;;6.30;;
12871;SDS011;6504;53.766;9.626;2023-03-22T11:27:06;8.23;;;6.20;;
12871;SDS011;6504;53.766;9.626;2023-03-22T11:29:47;9.27;;;6.37;;
12871;SDS011;6504;53.766;9.626;2023-03-22T11:32:25;8.03;;;5.83;;
12871;SDS011;6504;53.766;9.626;2023-03-22T11:35:03;8.83;;;5.90;;
12871;SDS011;6504;53.766;9.626;2023-03-22T11:37:42;7.93;;;5.60;;
12871;SDS011;6504;53.766;9.626;2023-03-22T11:40:14;7.17;;;6.03;;
12871;SDS011;6504;53.766;9.626;2023-03-22T11:42:51;7.37;;;5.23;;
12871;SDS011;6504;53.766;9.626;2023-03-22T11:45:24;6.97;;;5.17;;
12871;SDS011;6504;53.766;9.626;2023-03-22T11:47:59;6.07;;;5.40;;
12871;SDS011;6504;53.766;9.626;2023-03-22T11:50:33;4.97;;;4.43;;
12871;SDS011;6504;53.766;9.626;2023-03-22T11:53:06;6.20;;;4.93;;
12871;SDS011;6504;53.766;9.626;2023-03-22T11:55:41;7.63;;;5.17;;
12871;SDS011;6504;53.766;9.626;2023-03-22T11:58:21;7.13;;;4.77;;
12871;SDS011;6504;53.766;9.626;2023-03-22T12:00:58;7.73;;;5.40;;
12871;SDS011;6504;53.766;9.626;2023-03-22T12:03:31;7.07;;;5.17;;
12871;SDS011;6504;53.766;9.626;2023-03-22T12:06:12;7.27;;;5.50;;
12871;SDS011;6504;53.766;9.626;2023-03-22T12:08:50;7.93;;;5.53;;
12871;SDS011;6504;53.766;9.626;2023-03-22T12:11:25;7.40;;;5.10;;
12871;SDS011;6504;53.766;9.626;2023-03-22T12:14:00;6.50;;;5.00;;
12871;SDS011;6504;53.766;9.626;2023-03-22T12:16:37;9.17;;;5.30;;
12871;SDS011;6504;53.766;9.626;2023-03-22T12:19:18;8.50;;;5.40;;
12871;SDS011;6504;53.766;9.626;2023-03-22T12:21:59;5.33;;;4.70;;
12871;SDS011;6504;53.766;9.626;2023-03-22T12:24:44;6.90;;;5.00;;
12871;SDS011;6504;53.766;9.626;2023-03-22T12:27:17;4.63;;;4.17;;
12871;SDS011;6504;53.766;9.626;2023-03-22T12:29:52;5.23;;;3.93;;
12871;SDS011;6504;53.766;9.626;2023-03-22T12:32:27;7.43;;;4.77;;
12871;SDS011;6504;53.766;9.626;2023-03-22T12:34:58;9.97;;;4.57;;
12871;SDS011;6504;53.766;9.626;2023-03-22T12:37:47;9.20;;;4.67;;
12871;SDS011;6504;53.766;9.626;2023-03-22T12:40:22;7.47;;;4.67;;
12871;SDS011;6504;53.766;9.626;2023-03-22T12:42:59;5.93;;;4.93;;
12871;SDS011;6504;53.766;9.626;2023-03-22T12:45:36;6.60;;;4.40;;
12871;SDS011;6504;53.766;9.626;2023-03-22T12:48:10;8.77;;;5.00;;
12871;SDS011;6504;53.766;9.626;2023-03-22T12:50:47;4.40;;;3.67;;
12871;SDS011;6504;53.766;9.626;2023-03-22T12:53:24;7.63;;;4.20;;
12871;SDS011;6504;53.766;9.626;2023-03-22T12:55:57;4.60;;;3.30;;
12871;SDS011;6504;53.766;9.626;2023-03-22T12:58:28;5.23;;;3.23;;
12871;SDS011;6504;53.766;9.626;2023-03-22T13:00:59;5.37;;;3.57;;
12871;SDS011;6504;53.766;9.626;2023-03-22T13:03:45;4.33;;;3.20;;
12871;SDS011;6504;53.766;9.626;2023-03-22T13:06:28;3.90;;;3.30;;
12871;SDS011;6504;53.766;9.626;2023-03-22T13:09:37;6.23;;;3.20;;
12871;SDS011;6504;53.766;9.626;2023-03-22T13:12:26;6.50;;;3.27;;
12871;SDS011;6504;53.766;9.626;2023-03-22T13:18:22;6.20;;;3.10;;
12871;SDS011;6504;53.766;9.626;2023-03-22T13:21:09;4.60;;;3.10;;
12871;SDS011;6504;53.766;9.626;2023-03-22T13:23:53;6.47;;;3.30;;
12871;SDS011;6504;53.766;9.626;2023-03-22T13:26:31;7.37;;;3.40;;
12871;SDS011;6504;53.766;9.626;2023-03-22T13:29:08;6.57;;;3.47;;
12871;SDS011;6504;53.766;9.626;2023-03-22T13:31:44;6.20;;;3.17;;
12871;SDS011;6504;53.766;9.626;2023-03-22T13:34:31;4.93;;;3.20;;
12871;SDS011;6504;53.766;9.626;2023-03-22T13:37:08;7.03;;;4.00;;
12871;SDS011;6504;53.766;9.626;2023-03-22T13:39:50;6.77;;;3.33;;
12871;SDS011;6504;53.766;9.626;2023-03-22T13:42:22;6.80;;;3.53;;
12871;SDS011;6504;53.766;9.626;2023-03-22T13:45:02;6.20;;;3.60;;
12871;SDS011;6504;53.766;9.626;2023-03-22T13:47:42;6.10;;;3.57;;
12871;SDS011;6504;53.766;9.626;2023-03-22T13:50:13;6.50;;;3.30;;
12871;SDS011;6504;53.766;9.626;2023-03-22T13:52:50;6.23;;;3.80;;
12871;SDS011;6504;53.766;9.626;2023-03-22T13:55:37;5.40;;;3.30;;
12871;SDS011;6504;53.766;9.626;2023-03-22T13:58:47;5.93;;;3.67;;
12871;SDS011;6504;53.766;9.626;2023-03-22T14:01:22;7.50;;;3.73;;
12871;SDS011;6504;53.766;9.626;2023-03-22T14:04:02;6.47;;;3.63;;
12871;SDS011;6504;53.766;9.626;2023-03-22T14:06:40;8.77;;;3.50;;
12871;SDS011;6504;53.766;9.626;2023-03-22T14:09:20;6.33;;;4.17;;
12871;SDS011;6504;53.766;9.626;2023-03-22T14:11:56;4.97;;;3.77;;
12871;SDS011;6504;53.766;9.626;2023-03-22T14:14:38;6.00;;;3.60;;
12871;SDS011;6504;53.766;9.626;2023-03-22T14:17:17;6.77;;;3.70;;
12871;SDS011;6504;53.766;9.626;2023-03-22T14:19:54;5.93;;;3.63;;
12871;SDS011;6504;53.766;9.626;2023-03-22T14:22:26;6.03;;;3.77;;
12871;SDS011;6504;53.766;9.626;2023-03-22T14:25:00;6.97;;;4.00;;
12871;SDS011;6504;53.766;9.626;2023-03-22T14:27:31;5.50;;;3.57;;
12871;SDS011;6504;53.766;9.626;2023-03-22T14:30:03;5.63;;;4.07;;
12871;SDS011;6504;53.766;9.626;2023-03-22T14:32:34;5.10;;;3.80;;
12871;SDS011;6504;53.766;9.626;2023-03-22T14:35:06;5.97;;;3.70;;
12871;SDS011;6504;53.766;9.626;2023-03-22T14:37:36;6.10;;;3.97;;
12871;SDS011;6504;53.766;9.626;2023-03-22T14:40:11;6.00;;;3.80;;
12871;SDS011;6504;53.766;9.626;2023-03-22T14:42:41;6.13;;;3.87;;
12871;SDS011;6504;53.766;9.626;2023-03-22T14:45:15;5.30;;;3.70;;
12871;SDS011;6504;53.766;9.626;2023-03-22T14:47:47;6.30;;;3.53;;
12871;SDS011;6504;53.766;9.626;2023-03-22T14:50:16;4.60;;;3.57;;
12871;SDS011;6504;53.766;9.626;2023-03-22T14:52:47;7.27;;;4.30;;
12871;SDS011;6504;53.766;9.626;2023-03-22T14:55:16;6.33;;;3.80;;
12871;SDS011;6504;53.766;9.626;2023-03-22T14:57:48;5.90;;;4.70;;
12871;SDS011;6504;53.766;9.626;2023-03-22T15:00:20;5.57;;;3.60;;
12871;SDS011;6504;53.766;9.626;2023-03-22T15:02:53;8.03;;;4.37;;
12871;SDS011;6504;53.766;9.626;2023-03-22T15:05:26;6.10;;;3.97;;
12871;SDS011;6504;53.766;9.626;2023-03-22T15:08:05;6.87;;;3.80;;
12871;SDS011;6504;53.766;9.626;2023-03-22T15:10:34;5.30;;;3.93;;
12871;SDS011;6504;53.766;9.626;2023-03-22T15:13:04;7.90;;;4.70;;
12871;SDS011;6504;53.766;9.626;2023-03-22T15:15:36;7.03;;;4.27;;
12871;SDS011;6504;53.766;9.626;2023-03-22T15:18:05;7.93;;;4.53;;
12871;SDS011;6504;53.766;9.626;2023-03-22T15:20:38;8.67;;;4.87;;
12871;SDS011;6504;53.766;9.626;2023-03-22T15:23:11;7.90;;;4.63;;
12871;SDS011;6504;53.766;9.626;2023-03-22T15:25:44;10.23;;;5.30;;
12871;SDS011;6504;53.766;9.626;2023-03-22T15:28:14;6.33;;;4.93;;
12871;SDS011;6504;53.766;9.626;2023-03-22T15:30:48;7.53;;;5.20;;
12871;SDS011;6504;53.766;9.626;2023-03-22T15:33:19;7.57;;;5.60;;
12871;SDS011;6504;53.766;9.626;2023-03-22T15:35:50;7.90;;;5.57;;
12871;SDS011;6504;53.766;9.626;2023-03-22T15:38:22;8.07;;;5.60;;
12871;SDS011;6504;53.766;9.626;2023-03-22T15:40:53;10.23;;;5.63;;